Terminal Aerodrome Forecast
Issued by NWS

Home | Current Version | Previous Version | Text Only | Print | Product List | Glossary On
Versions: 1 2 3 4 5 6 7 8 9 10 11 12 13
000
FTUS45 KREV 230500
TAFMMH
TAF
KMMH 230534Z 2306/2406 34010KT P6SM SCT250
     FM231800 29011KT P6SM SCT250
      AMD NOT SKED 2306/2314=

USA.gov is the U.S. government's official web portal to all federal, state and local government web resources and services.